createdAt,value
2023-03-01T00:00:24.230Z,42.31
2023-03-01T00:03:10.289Z,41.64
2023-03-01T00:05:56.131Z,41.57
2023-03-01T00:08:41.907Z,41.79
2023-03-01T00:11:27.926Z,42.14
2023-03-01T00:14:13.777Z,41.89
2023-03-01T00:16:59.778Z,44.45
2023-03-01T00:19:45.757Z,43.56
2023-03-01T00:22:31.577Z,44.43
2023-03-01T00:25:17.451Z,42.62
2023-03-01T00:28:03.324Z,44.78
2023-03-01T00:30:49.315Z,44.48
2023-03-01T00:33:35.333Z,43.85
2023-03-01T00:36:21.261Z,45.86
2023-03-01T00:39:07.251Z,44.13
2023-03-01T00:41:53.207Z,45.22
2023-03-01T00:44:39.078Z,45.44
2023-03-01T00:47:25.012Z,44.30
2023-03-01T00:50:10.875Z,45.73
2023-03-01T00:52:56.751Z,45.96
2023-03-01T00:55:42.737Z,45.85
2023-03-01T00:58:28.545Z,44.78
2023-03-01T01:01:14.627Z,45.47
2023-03-01T01:04:00.463Z,44.27
2023-03-01T01:06:46.356Z,45.58
2023-03-01T01:09:32.147Z,44.94
2023-03-01T01:12:18.278Z,47.19
2023-03-01T01:15:04.273Z,45.48
2023-03-01T01:17:50.338Z,45.92
2023-03-01T01:20:36.232Z,45.87
2023-03-01T01:23:22.159Z,46.10
2023-03-01T01:26:08.099Z,44.41
2023-03-01T01:28:53.997Z,45.59
2023-03-01T01:31:40.070Z,45.89
2023-03-01T01:34:26.013Z,45.85
2023-03-01T01:37:12.024Z,45.15
2023-03-01T01:39:58.035Z,45.58
2023-03-01T01:42:44.019Z,45.45
2023-03-01T01:45:29.933Z,44.11
2023-03-01T01:48:15.885Z,44.96
2023-03-01T01:51:01.764Z,46.81
2023-03-01T01:53:47.698Z,47.54
2023-03-01T01:56:33.432Z,45.29
2023-03-01T01:59:19.479Z,43.22
2023-03-01T02:02:05.349Z,44.31
2023-03-01T02:04:51.586Z,45.12
2023-03-01T02:07:37.502Z,45.22
2023-03-01T02:10:23.491Z,44.83
2023-03-01T02:13:09.432Z,45.32
2023-03-01T02:15:55.518Z,45.32
2023-03-01T02:18:41.368Z,45.80
2023-03-01T02:21:27.406Z,45.60
2023-03-01T02:24:13.393Z,45.09
2023-03-01T02:26:59.275Z,43.69
2023-03-01T02:29:45.229Z,46.54
2023-03-01T02:32:31.129Z,45.89
2023-03-01T02:35:17.035Z,45.29
2023-03-01T02:38:02.955Z,45.32
2023-03-01T02:40:48.790Z,46.62
2023-03-01T02:43:34.747Z,45.50
2023-03-01T02:46:20.630Z,46.05
2023-03-01T02:49:06.924Z,44.60
2023-03-01T02:51:52.938Z,44.68
2023-03-01T02:54:38.771Z,45.59
2023-03-01T02:57:24.827Z,46.45
2023-03-01T03:00:10.755Z,43.98
2023-03-01T03:02:56.565Z,44.83
2023-03-01T03:05:42.425Z,45.44
2023-03-01T03:08:28.400Z,46.86
2023-03-01T03:11:14.345Z,46.68
2023-03-01T03:14:00.340Z,47.07
2023-03-01T03:16:46.299Z,48.09
2023-03-01T03:19:32.316Z,47.73
2023-03-01T03:22:18.520Z,47.99
2023-03-01T03:25:04.426Z,47.85
2023-03-01T03:27:50.262Z,47.57
2023-03-01T03:30:36.125Z,46.68
2023-03-01T03:33:22.022Z,47.78
2023-03-01T03:36:08.057Z,45.39
2023-03-01T03:38:53.831Z,45.82
2023-03-01T03:41:39.919Z,47.28
2023-03-01T03:44:25.783Z,48.05
2023-03-01T03:47:11.721Z,47.50
2023-03-01T03:49:57.720Z,47.46
2023-03-01T03:52:43.565Z,46.66
2023-03-01T03:55:29.476Z,45.83
2023-03-01T03:58:15.484Z,47.50
2023-03-01T04:01:01.339Z,47.55
2023-03-01T04:03:47.300Z,45.99
2023-03-01T04:06:33.286Z,47.96
2023-03-01T04:09:19.404Z,46.27
2023-03-01T04:12:05.320Z,49.10
2023-03-01T04:14:51.095Z,47.64
2023-03-01T04:17:37.068Z,47.65
2023-03-01T04:20:22.974Z,47.14
2023-03-01T04:23:08.853Z,46.17
2023-03-01T04:25:54.848Z,46.40
2023-03-01T04:28:41.079Z,48.69
2023-03-01T04:31:27.042Z,48.54
2023-03-01T04:34:12.990Z,47.64
2023-03-01T04:36:58.866Z,48.54
2023-03-01T04:39:44.766Z,45.92
2023-03-01T04:42:30.761Z,47.15
2023-03-01T04:45:16.600Z,47.22
2023-03-01T04:48:02.522Z,48.65
2023-03-01T04:50:48.523Z,47.65
2023-03-01T04:53:34.326Z,46.93
2023-03-01T04:56:20.357Z,48.50
2023-03-01T04:59:06.225Z,48.13
2023-03-01T05:01:52.148Z,46.61
2023-03-01T05:04:38.143Z,48.31
2023-03-01T05:07:23.970Z,47.87
2023-03-01T05:10:09.884Z,47.22
2023-03-01T05:12:55.722Z,46.40
2023-03-01T05:15:41.639Z,48.65
2023-03-01T05:18:27.537Z,47.98
2023-03-01T05:21:13.474Z,47.98
2023-03-01T05:23:59.343Z,48.45
2023-03-01T05:26:45.203Z,46.92
2023-03-01T05:29:31.081Z,48.18
2023-03-01T05:32:19.011Z,47.34
2023-03-01T05:35:05.009Z,48.97
2023-03-01T05:37:50.956Z,46.49
2023-03-01T05:40:37.007Z,47.28
2023-03-01T05:43:22.823Z,48.81
2023-03-01T05:46:08.692Z,47.34
2023-03-01T05:48:54.727Z,46.53
2023-03-01T05:51:40.830Z,47.30
2023-03-01T05:54:26.784Z,48.42
2023-03-01T05:57:12.758Z,47.71
2023-03-01T05:59:58.507Z,47.29
2023-03-01T06:02:44.432Z,49.21
2023-03-01T06:05:30.265Z,48.05
2023-03-01T06:08:16.311Z,47.79
2023-03-01T06:11:02.288Z,47.19
2023-03-01T06:13:48.037Z,47.85
2023-03-01T06:16:33.871Z,46.02
2023-03-01T06:19:19.721Z,46.02
2023-03-01T06:22:05.801Z,44.55
2023-03-01T06:24:51.786Z,46.59
2023-03-01T06:27:37.657Z,46.98
2023-03-01T06:30:23.541Z,45.54
2023-03-01T06:33:09.657Z,48.18
2023-03-01T06:35:55.542Z,46.96
2023-03-01T06:38:41.589Z,46.90
2023-03-01T06:41:27.535Z,45.92
2023-03-01T06:44:13.456Z,47.87
2023-03-01T06:46:59.334Z,47.28
2023-03-01T06:49:45.153Z,46.44
2023-03-01T06:52:31.202Z,45.24
2023-03-01T06:55:17.204Z,46.26
2023-03-01T06:58:03.131Z,45.95
2023-03-01T07:00:49.092Z,47.88
2023-03-01T07:03:34.909Z,45.81
2023-03-01T07:06:23.313Z,45.20
2023-03-01T07:09:09.358Z,44.90
2023-03-01T07:11:55.158Z,44.86
2023-03-01T07:14:41.208Z,44.87
2023-03-01T07:17:27.181Z,46.38
2023-03-01T07:20:12.971Z,44.42
2023-03-01T07:22:58.896Z,44.94
2023-03-01T07:25:44.856Z,45.99
2023-03-01T07:28:30.696Z,46.01
2023-03-01T07:31:16.726Z,46.44
2023-03-01T07:34:02.703Z,44.92
2023-03-01T07:36:48.638Z,46.40
2023-03-01T07:39:34.651Z,46.34
2023-03-01T07:42:20.684Z,46.49
2023-03-01T07:45:06.875Z,44.57
2023-03-01T07:47:52.912Z,44.01
2023-03-01T07:50:38.802Z,44.42
2023-03-01T07:53:24.795Z,45.24
2023-03-01T07:56:10.691Z,44.92
2023-03-01T07:58:56.676Z,44.94
2023-03-01T08:01:42.756Z,44.82
2023-03-01T08:04:28.610Z,43.84
2023-03-01T08:07:14.583Z,44.07
2023-03-01T08:10:00.494Z,47.84
2023-03-01T08:12:46.372Z,45.56
2023-03-01T08:15:32.356Z,43.28
2023-03-01T08:18:18.244Z,44.33
2023-03-01T08:21:04.101Z,46.12
2023-03-01T08:23:50.092Z,44.93
2023-03-01T08:26:36.108Z,45.26
2023-03-01T08:29:22.087Z,45.63
2023-03-01T08:32:08.177Z,45.91
2023-03-01T08:34:54.488Z,46.05
2023-03-01T08:37:40.430Z,47.34
2023-03-01T08:40:26.362Z,47.62
2023-03-01T08:43:12.393Z,45.96
2023-03-01T08:45:58.452Z,45.85
2023-03-01T08:48:44.383Z,44.31
2023-03-01T08:51:30.362Z,46.25
2023-03-01T08:54:16.422Z,43.87
2023-03-01T08:57:02.501Z,44.94
2023-03-01T08:59:48.404Z,45.55
2023-03-01T09:02:34.219Z,44.31
2023-03-01T09:05:20.462Z,44.47
2023-03-01T09:08:06.735Z,44.18
2023-03-01T09:10:52.880Z,45.73
2023-03-01T09:13:38.909Z,45.53
2023-03-01T09:16:24.863Z,45.71
2023-03-01T09:19:10.914Z,46.14
2023-03-01T09:21:57.003Z,45.49
2023-03-01T09:24:42.959Z,45.16
2023-03-01T09:27:28.868Z,44.12
2023-03-01T09:30:14.906Z,46.04
2023-03-01T09:33:00.663Z,47.93
2023-03-01T09:35:46.550Z,47.41
2023-03-01T09:38:32.423Z,46.03
2023-03-01T09:41:18.453Z,48.18
2023-03-01T09:44:04.441Z,46.60
2023-03-01T09:46:50.232Z,47.71
2023-03-01T09:49:36.138Z,47.47
2023-03-01T09:52:22.249Z,48.74
2023-03-01T09:55:08.240Z,46.06
2023-03-01T09:57:54.301Z,47.76
2023-03-01T10:00:40.286Z,46.38
2023-03-01T10:03:26.333Z,45.29
2023-03-01T10:06:14.938Z,44.76
2023-03-01T10:09:07.393Z,44.71
2023-03-01T10:11:53.323Z,45.86
2023-03-01T10:14:39.272Z,44.02
2023-03-01T10:17:25.273Z,44.56
2023-03-01T10:20:13.242Z,44.02
2023-03-01T10:22:58.998Z,42.72
2023-03-01T10:25:45.049Z,42.08
2023-03-01T10:28:30.952Z,43.11
2023-03-01T10:31:17.082Z,43.62
2023-03-01T10:34:03.121Z,46.66
2023-03-01T10:36:48.993Z,44.29
2023-03-01T10:39:35.163Z,45.74
2023-03-01T10:42:21.905Z,45.01
2023-03-01T10:45:08.081Z,43.32
2023-03-01T10:47:54.015Z,42.74
2023-03-01T10:50:41.950Z,41.67
2023-03-01T10:53:28.116Z,42.90
2023-03-01T10:56:14.280Z,43.32
2023-03-01T10:59:00.246Z,42.71
2023-03-01T11:01:46.191Z,43.46
2023-03-01T11:04:32.117Z,43.10
2023-03-01T11:07:22.731Z,38.95
2023-03-01T11:10:08.624Z,40.12
2023-03-01T11:12:54.551Z,40.42
2023-03-01T11:15:40.343Z,40.45
2023-03-01T11:18:40.549Z,38.57
2023-03-01T11:21:32.455Z,40.05
2023-03-01T11:24:18.747Z,38.94
2023-03-01T11:27:04.633Z,39.03
2023-03-01T11:29:50.562Z,38.33
2023-03-01T11:32:36.534Z,36.70
2023-03-01T11:35:22.493Z,37.25
2023-03-01T11:38:08.350Z,37.06
2023-03-01T11:40:56.000Z,38.53
2023-03-01T11:43:42.295Z,36.81
2023-03-01T11:46:28.375Z,38.70
2023-03-01T11:49:14.484Z,38.13
2023-03-01T11:52:00.640Z,36.99
2023-03-01T11:54:46.616Z,36.08
2023-03-01T11:57:42.877Z,37.65
2023-03-01T12:00:29.913Z,37.21
2023-03-01T12:03:15.750Z,37.84
2023-03-01T12:06:01.717Z,37.54
2023-03-01T12:08:47.664Z,40.30
2023-03-01T12:11:33.451Z,38.11
2023-03-01T12:14:19.342Z,37.03
2023-03-01T12:17:05.192Z,36.59
2023-03-01T12:19:51.127Z,37.57
2023-03-01T12:22:37.208Z,36.80
2023-03-01T12:25:23.117Z,36.52
2023-03-01T12:28:08.972Z,37.24
2023-03-01T12:30:54.871Z,36.96
2023-03-01T12:33:40.880Z,37.04
2023-03-01T12:36:26.982Z,38.49
2023-03-01T12:39:12.875Z,38.96
2023-03-01T12:41:58.852Z,41.41
2023-03-01T12:44:45.069Z,40.45
2023-03-01T12:47:31.284Z,38.75
2023-03-01T12:50:17.158Z,39.74
2023-03-01T12:53:03.046Z,39.07
2023-03-01T12:55:49.046Z,37.43
2023-03-01T12:58:48.829Z,39.65
2023-03-01T13:01:35.649Z,37.98
2023-03-01T13:04:21.561Z,38.70
2023-03-01T13:07:07.515Z,39.56
2023-03-01T13:09:53.511Z,38.00
2023-03-01T13:12:39.536Z,38.86
2023-03-01T13:15:25.380Z,39.20
2023-03-01T13:18:11.208Z,37.92
2023-03-01T13:20:57.700Z,37.98
2023-03-01T13:23:43.747Z,38.06
2023-03-01T13:26:29.879Z,39.27
2023-03-01T13:29:16.210Z,36.92
2023-03-01T13:32:02.291Z,38.40
2023-03-01T13:34:48.264Z,38.34
2023-03-01T13:37:34.049Z,38.97
2023-03-01T13:40:19.892Z,39.30
2023-03-01T13:43:06.372Z,38.08
2023-03-01T13:45:52.368Z,35.89
2023-03-01T13:48:38.458Z,37.88
2023-03-01T13:51:24.403Z,37.72
2023-03-01T13:54:10.267Z,38.51
2023-03-01T13:56:56.143Z,38.53
2023-03-01T13:59:42.086Z,37.22
2023-03-01T14:02:28.088Z,36.41
2023-03-01T14:05:14.095Z,36.15
2023-03-01T14:07:59.999Z,37.81
2023-03-01T14:10:46.321Z,37.60
2023-03-01T14:13:32.094Z,37.44
2023-03-01T14:16:18.138Z,37.54
2023-03-01T14:19:04.397Z,36.31
2023-03-01T14:21:50.296Z,35.65
2023-03-01T14:24:36.378Z,37.15
2023-03-01T14:27:22.361Z,37.15
2023-03-01T14:30:08.267Z,37.92
2023-03-01T14:32:54.324Z,37.57
2023-03-01T14:35:40.458Z,37.28
2023-03-01T14:38:26.421Z,38.14
2023-03-01T14:41:12.822Z,37.69
2023-03-01T14:43:58.764Z,38.84
2023-03-01T14:46:44.749Z,37.43
2023-03-01T14:49:30.800Z,37.31
2023-03-01T14:52:16.713Z,37.96
2023-03-01T14:55:02.821Z,37.84
2023-03-01T14:57:48.948Z,38.33
2023-03-01T15:00:35.068Z,40.03
2023-03-01T15:03:21.085Z,38.31
2023-03-01T15:06:06.994Z,38.42
2023-03-01T15:08:53.322Z,38.03
2023-03-01T15:11:39.175Z,37.78
2023-03-01T15:14:25.176Z,37.13
2023-03-01T15:17:11.122Z,38.96
2023-03-01T15:19:57.265Z,38.14
2023-03-01T15:22:43.108Z,38.33
2023-03-01T15:25:29.142Z,37.96
2023-03-01T15:28:15.016Z,37.29
2023-03-01T15:31:01.279Z,39.54
2023-03-01T15:33:47.378Z,38.20
2023-03-01T15:36:33.613Z,37.80
2023-03-01T15:39:20.224Z,38.50
2023-03-01T15:42:06.620Z,36.84
2023-03-01T15:44:52.619Z,40.49
2023-03-01T15:47:38.673Z,39.41
2023-03-01T15:50:24.543Z,42.28
2023-03-01T15:53:11.605Z,40.11
2023-03-01T15:55:57.827Z,40.17
2023-03-01T15:58:45.795Z,39.84
2023-03-01T16:01:33.223Z,39.78
2023-03-01T16:04:19.831Z,40.68
2023-03-01T16:07:05.864Z,42.34
2023-03-01T16:09:51.761Z,40.87
2023-03-01T16:12:37.729Z,41.14
2023-03-01T16:15:24.001Z,42.76
2023-03-01T16:18:11.949Z,41.02
2023-03-01T16:20:57.973Z,42.37
2023-03-01T16:23:43.961Z,43.26
2023-03-01T16:26:30.260Z,44.35
2023-03-01T16:29:16.539Z,43.95
2023-03-01T16:32:02.619Z,44.32
2023-03-01T16:34:49.377Z,45.56
2023-03-01T16:37:35.730Z,46.67
2023-03-01T16:40:21.720Z,45.40
2023-03-01T16:43:07.922Z,45.15
2023-03-01T16:45:54.107Z,46.49
2023-03-01T16:48:40.032Z,46.18
2023-03-01T16:51:25.963Z,43.85
2023-03-01T16:54:11.874Z,46.20
2023-03-01T16:56:57.951Z,45.11
2023-03-01T16:59:44.012Z,50.86
2023-03-01T17:02:29.967Z,52.46
2023-03-01T17:05:15.916Z,50.70
2023-03-01T17:08:01.939Z,61.18
2023-03-01T17:10:47.858Z,52.91
2023-03-01T17:13:33.782Z,63.54
2023-03-01T17:16:19.923Z,49.35
2023-03-01T17:19:06.039Z,49.10
2023-03-01T17:21:52.120Z,46.74
2023-03-01T17:24:38.126Z,47.60
2023-03-01T17:27:25.445Z,47.82
2023-03-01T17:30:11.889Z,45.47
2023-03-01T17:32:57.846Z,46.33
2023-03-01T17:35:44.301Z,46.22
2023-03-01T17:38:30.308Z,47.71
2023-03-01T17:41:18.115Z,48.64
2023-03-01T17:44:04.047Z,45.96
2023-03-01T17:46:49.980Z,46.66
2023-03-01T17:49:35.936Z,46.56
2023-03-01T17:52:21.935Z,47.44
2023-03-01T17:55:16.544Z,45.91
2023-03-01T17:58:02.745Z,47.90
2023-03-01T18:00:48.640Z,45.97
2023-03-01T18:03:34.949Z,47.28
2023-03-01T18:06:21.305Z,46.37
2023-03-01T18:09:07.230Z,45.92
2023-03-01T18:11:53.467Z,45.23
2023-03-01T18:14:39.466Z,46.99
2023-03-01T18:17:25.399Z,47.28
2023-03-01T18:20:11.476Z,47.84
2023-03-01T18:22:57.371Z,48.91
2023-03-01T18:25:43.248Z,48.04
2023-03-01T18:28:29.299Z,46.76
2023-03-01T18:31:15.311Z,47.60
2023-03-01T18:34:01.611Z,49.21
2023-03-01T18:37:00.444Z,49.88
2023-03-01T18:39:52.081Z,50.69
2023-03-01T18:42:38.101Z,49.36
2023-03-01T18:45:24.096Z,49.76
2023-03-01T18:48:10.001Z,56.77
2023-03-01T18:50:55.983Z,58.46
2023-03-01T18:53:41.860Z,53.12
2023-03-01T18:56:27.944Z,49.00
2023-03-01T18:59:15.523Z,52.31
2023-03-01T19:02:01.555Z,51.15
2023-03-01T19:04:47.956Z,49.21
2023-03-01T19:07:33.865Z,49.47
2023-03-01T19:10:19.768Z,49.40
2023-03-01T19:13:05.795Z,49.23
2023-03-01T19:15:51.935Z,48.24
2023-03-01T19:18:37.876Z,47.86
2023-03-01T19:21:23.720Z,49.32
2023-03-01T19:24:09.547Z,46.55
2023-03-01T19:26:55.425Z,49.14
2023-03-01T19:29:41.364Z,48.68
2023-03-01T19:32:27.242Z,48.74
2023-03-01T19:35:13.332Z,48.04
2023-03-01T19:37:59.314Z,47.37
2023-03-01T19:40:45.251Z,48.04
2023-03-01T19:43:31.232Z,46.91
2023-03-01T19:46:17.133Z,47.27
2023-03-01T19:49:03.262Z,48.55
2023-03-01T19:51:49.455Z,49.03
2023-03-01T19:54:35.390Z,48.29
2023-03-01T19:57:21.601Z,49.11
2023-03-01T20:00:07.703Z,48.32
2023-03-01T20:02:53.839Z,50.12
2023-03-01T20:05:39.906Z,47.53
2023-03-01T20:08:25.823Z,49.48
2023-03-01T20:11:11.770Z,49.68
2023-03-01T20:13:57.756Z,49.59
2023-03-01T20:16:43.701Z,49.11
2023-03-01T20:19:29.822Z,47.89
2023-03-01T20:22:16.821Z,49.02
2023-03-01T20:25:03.699Z,49.32
2023-03-01T20:27:49.742Z,49.28
2023-03-01T20:30:35.694Z,49.48
2023-03-01T20:33:21.715Z,50.01
2023-03-01T20:36:07.761Z,49.32
2023-03-01T20:38:54.004Z,49.49
2023-03-01T20:41:39.877Z,51.03
2023-03-01T20:44:25.747Z,50.96
2023-03-01T20:47:11.689Z,52.17
2023-03-01T20:49:57.822Z,52.94
2023-03-01T20:52:47.855Z,51.31
2023-03-01T20:55:34.260Z,50.07
2023-03-01T20:58:20.266Z,50.81
2023-03-01T21:01:06.366Z,50.16
2023-03-01T21:03:52.304Z,50.53
2023-03-01T21:06:38.255Z,50.48
2023-03-01T21:09:24.106Z,51.41
2023-03-01T21:12:10.112Z,51.48
2023-03-01T21:14:56.130Z,50.80
2023-03-01T21:17:42.065Z,51.61
2023-03-01T21:20:28.072Z,50.64
2023-03-01T21:23:14.259Z,50.07
2023-03-01T21:26:00.179Z,50.36
2023-03-01T21:28:46.049Z,51.21
2023-03-01T21:31:32.200Z,50.30
2023-03-01T21:34:18.077Z,52.00
2023-03-01T21:37:03.987Z,53.75
2023-03-01T21:39:49.964Z,51.27
2023-03-01T21:42:35.903Z,51.45
2023-03-01T21:45:21.995Z,50.48
2023-03-01T21:48:08.258Z,50.29
2023-03-01T21:50:54.248Z,50.77
2023-03-01T21:53:40.183Z,50.88
2023-03-01T21:56:26.110Z,64.49
2023-03-01T21:59:12.006Z,66.04
2023-03-01T22:01:57.903Z,56.73
2023-03-01T22:04:43.857Z,63.10
2023-03-01T22:07:29.816Z,51.67
2023-03-01T22:10:15.588Z,53.21
2023-03-01T22:13:01.672Z,52.52
2023-03-01T22:15:47.625Z,50.68
2023-03-01T22:18:33.536Z,51.47
2023-03-01T22:21:19.548Z,50.15
2023-03-01T22:24:05.446Z,50.73
2023-03-01T22:26:51.371Z,49.48
2023-03-01T22:29:37.382Z,50.47
2023-03-01T22:32:23.403Z,48.63
2023-03-01T22:35:09.628Z,49.28
2023-03-01T22:37:55.734Z,48.68
2023-03-01T22:40:41.632Z,47.72
2023-03-01T22:43:27.674Z,47.00
2023-03-01T22:46:13.807Z,48.61
2023-03-01T22:49:00.019Z,49.32
2023-03-01T22:51:46.176Z,48.71
2023-03-01T22:54:32.160Z,48.11
2023-03-01T22:57:18.111Z,47.82
2023-03-01T23:00:04.100Z,47.23
2023-03-01T23:02:50.037Z,48.36
2023-03-01T23:05:36.088Z,46.49
2023-03-01T23:08:21.912Z,48.03
2023-03-01T23:11:08.035Z,47.14
2023-03-01T23:13:54.019Z,47.05
2023-03-01T23:16:39.958Z,47.04
2023-03-01T23:19:25.949Z,47.01
2023-03-01T23:22:11.765Z,48.13
2023-03-01T23:24:57.759Z,48.08
2023-03-01T23:27:43.713Z,47.76
2023-03-01T23:30:29.582Z,49.80
2023-03-01T23:33:15.544Z,46.19
2023-03-01T23:36:01.742Z,48.35
2023-03-01T23:38:47.889Z,47.13
2023-03-01T23:41:33.771Z,47.74
2023-03-01T23:44:19.722Z,47.74
2023-03-01T23:47:05.552Z,48.34
2023-03-01T23:49:51.515Z,50.01
2023-03-01T23:52:37.372Z,48.38
2023-03-01T23:55:23.350Z,46.88
2023-03-01T23:58:09.398Z,48.64
